ADDS METAR Data INFO
IDs: Format: Raw Decoded Include TAF

Data at: 1749 UTC 21 Oct 2017

METAR for:KBKV (Brooksville/Hernando, FL, US)
Text:KBKV 211653Z 09012G17KT 10SM CLR 30/18 A3015 RMK AO2 SLP206 T03000178
Temperature: 30.0°C ( 86°F)
Dewpoint: 17.8°C ( 64°F) [RH = 48%]
Pressure (altimeter):30.15 inches Hg (1021.1 mb) [Sea level pressure: 1020.6 mb]
Winds:from the E (90 degrees) at 14 MPH (12 knots; 6.2 m/s) gusting to 20 MPH (17 knots; 8.7 m/s)
Visibility:10 or more sm (16+ km)
Ceiling:at least 12,000 feet AGL
Clouds:sky clear below 12,000 feet AGL